Time;durP1;ratioP1;P1;durP2;ratioP2;P2;SDS_P1;SDS_P2;PMS_P1;PMS_P2;Temp;Humidity;BMP_temperature;BMP_pressure;BME280_temperature;BME280_humidity;BME280_pressure;Samples;Min_cycle;Max_cycle;Signal;HPM_P1;HPM_P2
2023/04/23 00:00:48;;;;;;;12.10;10.88;;;;;;;-146.18;100.00;67994.34;10058789;28;20106;-74
2023/04/23 00:05:46;;;;;;;11.27;10.27;;;;;;;-146.18;100.00;67994.34;10052708;28;20123;-73
2023/04/23 00:10:43;;;;;;;12.20;10.93;;;;;;;-146.18;100.00;67994.34;10023550;28;20055;-73
2023/04/23 00:15:40;;;;;;;10.23;9.23;;;;;;;-146.18;100.00;67994.34;10037157;28;20043;-73
2023/04/23 00:20:37;;;;;;;11.57;10.38;;;;;;;-146.18;100.00;67994.34;10030343;28;20039;-74
2023/04/23 00:25:33;;;;;;;12.25;11.05;;;;;;;-146.18;100.00;67994.34;10034590;28;20750;-73
2023/04/23 00:30:30;;;;;;;11.48;10.48;;;;;;;-146.18;100.00;67994.34;10062055;28;20047;-73
2023/04/23 00:35:26;;;;;;;11.70;10.70;;;;;;;-146.18;100.00;67994.34;10059077;28;20138;-73
2023/04/23 00:40:23;;;;;;;14.15;12.45;;;;;;;-146.18;100.00;67994.34;10060747;28;20043;-73
2023/04/23 00:45:19;;;;;;;13.68;12.38;;;;;;;-146.18;100.00;67994.34;10064687;28;20609;-73
2023/04/23 00:50:16;;;;;;;14.13;12.63;;;;;;;-146.18;100.00;67994.34;10057400;28;20548;-73
2023/04/23 00:55:13;;;;;;;13.07;10.55;;;;;;;-146.18;100.00;67994.34;10046472;28;20043;-72
2023/04/23 01:00:12;;;;;;;14.02;12.05;;;;;;;-146.18;100.00;67994.34;10058988;28;20399;-74
2023/04/23 01:05:10;;;;;;;12.48;11.27;;;;;;;-146.18;100.00;67994.34;10059877;28;20386;-74
2023/04/23 01:10:07;;;;;;;14.65;12.27;;;;;;;-146.18;100.00;67994.34;10056670;28;20490;-74
2023/04/23 01:15:04;;;;;;;14.93;13.05;;;;;;;-146.18;100.00;67994.34;10066466;28;20047;-74
2023/04/23 01:20:01;;;;;;;14.75;13.25;;;;;;;-146.18;100.00;67994.34;10066797;28;20055;-75
2023/04/23 01:24:57;;;;;;;15.50;12.60;;;;;;;-146.18;100.00;67994.34;10023184;28;20578;-74
2023/04/23 01:29:55;;;;;;;17.27;14.73;;;;;;;-146.18;100.00;67994.34;10051991;28;20134;-75
2023/04/23 01:34:53;;;;;;;14.95;13.35;;;;;;;-146.18;100.00;67994.34;10059216;28;20409;-75
2023/04/23 01:39:50;;;;;;;14.70;12.38;;;;;;;-146.18;100.00;67994.34;10064277;28;20470;-75
2023/04/23 01:44:47;;;;;;;13.77;12.02;;;;;;;-146.18;100.00;67994.34;10061898;28;20043;-74
2023/04/23 01:49:43;;;;;;;14.88;13.38;;;;;;;-146.18;100.00;67994.34;10061347;28;20509;-75
2023/04/23 01:54:40;;;;;;;15.80;13.82;;;;;;;-146.18;100.00;67994.34;10056651;28;20039;-75
2023/04/23 01:59:38;;;;;;;15.68;12.68;;;;;;;-146.18;100.00;67994.34;10047595;28;20484;-75
2023/04/23 02:04:35;;;;;;;15.88;12.70;;;;;;;-146.18;100.00;67994.34;10061675;28;20118;-75
2023/04/23 02:09:32;;;;;;;17.13;15.32;;;;;;;-146.18;100.00;67994.34;10061225;28;20129;-74
2023/04/23 02:14:29;;;;;;;20.50;18.30;;;;;;;-146.18;100.00;67994.34;10050845;28;20046;-75
2023/04/23 02:19:26;;;;;;;26.13;21.90;;;;;;;-146.18;100.00;67994.34;10058348;28;20447;-74
2023/04/23 02:24:23;;;;;;;26.52;21.58;;;;;;;-146.18;100.00;67994.34;10059616;28;20520;-75
2023/04/23 02:29:20;;;;;;;29.40;23.85;;;;;;;-146.18;100.00;67994.34;10061753;28;20062;-74
2023/04/23 02:34:19;;;;;;;31.92;24.67;;;;;;;-146.18;100.00;67994.34;10052643;28;20134;-74
2023/04/23 02:39:15;;;;;;;30.77;24.33;;;;;;;-146.18;100.00;67994.34;10056436;28;20096;-74
2023/04/23 02:44:11;;;;;;;29.17;24.05;;;;;;;-146.18;100.00;67994.34;10057339;28;20139;-75
2023/04/23 02:49:08;;;;;;;29.98;24.50;;;;;;;-146.18;100.00;67994.34;10059472;28;20110;-74
2023/04/23 02:54:05;;;;;;;28.67;22.27;;;;;;;-146.18;100.00;67994.34;10052121;28;20600;-74
2023/04/23 02:59:01;;;;;;;31.55;24.58;;;;;;;-146.18;100.00;67994.34;10056392;28;20581;-74
2023/04/23 03:03:58;;;;;;;30.77;22.58;;;;;;;-146.18;100.00;67994.34;10065941;28;20050;-74
2023/04/23 03:08:55;;;;;;;27.95;21.30;;;;;;;-146.18;100.00;67994.34;10059132;28;20049;-74
2023/04/23 03:13:51;;;;;;;27.08;21.25;;;;;;;-146.18;100.00;67994.34;10063337;28;20043;-75
2023/04/23 03:18:48;;;;;;;24.02;17.98;;;;;;;-146.18;100.00;67994.34;10050020;28;20478;-75
2023/04/23 03:23:44;;;;;;;31.08;21.63;;;;;;;-146.18;100.00;67994.34;10056381;28;20063;-74
2023/04/23 03:28:41;;;;;;;27.05;19.02;;;;;;;-146.18;100.00;67994.34;10053819;28;20147;-75
2023/04/23 03:33:37;;;;;;;26.23;19.98;;;;;;;-146.18;100.00;67994.34;10055949;28;20525;-74
2023/04/23 03:38:34;;;;;;;23.20;17.42;;;;;;;-146.18;100.00;67994.34;10066276;28;20054;-74
2023/04/23 03:43:30;;;;;;;22.30;17.55;;;;;;;-146.18;100.00;67994.34;10062439;28;20461;-74
2023/04/23 03:48:26;;;;;;;23.05;16.95;;;;;;;-146.18;100.00;67994.34;10062528;28;20694;-74
2023/04/23 03:53:23;;;;;;;23.10;18.13;;;;;;;-146.18;100.00;67994.34;10061771;28;20402;-74
2023/04/23 03:58:20;;;;;;;20.55;17.10;;;;;;;-146.18;100.00;67994.34;10069092;28;20043;-75
2023/04/23 04:03:16;;;;;;;25.60;18.08;;;;;;;-146.18;100.00;67994.34;10068486;28;20039;-74
2023/04/23 04:08:13;;;;;;;21.60;14.70;;;;;;;-146.18;100.00;67994.34;10070174;28;20078;-74
2023/04/23 04:13:09;;;;;;;21.55;14.82;;;;;;;-146.18;100.00;67994.34;10062479;28;20043;-74
2023/04/23 04:18:06;;;;;;;20.73;14.80;;;;;;;-146.18;100.00;67994.34;10056699;28;20126;-74
2023/04/23 04:23:02;;;;;;;20.08;14.30;;;;;;;-146.18;100.00;67994.34;10061888;28;20052;-74
2023/04/23 04:27:59;;;;;;;19.15;15.48;;;;;;;-146.18;100.00;67994.34;10056402;28;20054;-74
2023/04/23 04:32:55;;;;;;;19.45;13.23;;;;;;;-146.18;100.00;67994.34;10055178;28;20043;-74
2023/04/23 04:37:53;;;;;;;16.85;14.55;;;;;;;-146.18;100.00;67994.34;10054948;28;20139;-74
2023/04/23 04:42:51;;;;;;;15.70;13.40;;;;;;;-146.18;100.00;67994.34;10067250;28;20464;-75
2023/04/23 04:47:48;;;;;;;15.65;11.90;;;;;;;-146.18;100.00;67994.34;10063794;28;20043;-75
2023/04/23 04:52:44;;;;;;;16.75;12.85;;;;;;;-146.18;100.00;67994.34;10061535;28;20497;-74
2023/04/23 04:57:41;;;;;;;13.50;12.02;;;;;;;-146.18;100.00;67994.34;10051946;28;20181;-74
2023/04/23 05:02:37;;;;;;;15.68;12.55;;;;;;;-146.18;100.00;67994.34;10068533;28;20410;-74
2023/04/23 05:07:34;;;;;;;15.00;11.32;;;;;;;-146.18;100.00;67994.34;10061301;28;20139;-75
2023/04/23 05:12:30;;;;;;;16.10;11.55;;;;;;;-146.18;100.00;67994.34;10071783;28;20074;-74
2023/04/23 05:17:27;;;;;;;14.85;12.50;;;;;;;-146.18;100.00;67994.34;10054536;28;20051;-75
2023/04/23 05:22:23;;;;;;;14.13;12.50;;;;;;;-146.18;100.00;67994.34;10061344;28;20421;-74
2023/04/23 05:27:20;;;;;;;13.30;10.82;;;;;;;-146.18;100.00;67994.34;10061872;28;20052;-74
2023/04/23 05:32:16;;;;;;;15.13;11.90;;;;;;;-146.18;100.00;67994.34;10054266;28;20513;-74
2023/04/23 05:37:13;;;;;;;16.35;10.88;;;;;;;-146.18;100.00;67994.34;10059564;28;20052;-73
2023/04/23 05:42:10;;;;;;;10.55;8.48;;;;;;;-146.18;100.00;67994.34;10060193;28;20130;-74
2023/04/23 05:47:07;;;;;;;12.60;9.98;;;;;;;-146.18;100.00;67994.34;10056493;28;20122;-74
2023/04/23 05:52:04;;;;;;;10.95;8.98;;;;;;;-146.18;100.00;67994.34;10058234;28;20453;-74
2023/04/23 05:57:01;;;;;;;13.68;9.35;;;;;;;-146.18;100.00;67994.34;10065703;28;20079;-74
2023/04/23 06:01:58;;;;;;;10.52;9.43;;;;;;;-146.18;100.00;67994.34;10060210;28;20095;-74
2023/04/23 06:06:55;;;;;;;11.20;8.98;;;;;;;-146.18;100.00;67994.34;10060782;28;20758;-74
2023/04/23 06:11:52;;;;;;;11.32;9.45;;;;;;;-146.18;100.00;67994.34;10057933;28;20110;-74
2023/04/23 06:16:48;;;;;;;12.63;9.45;;;;;;;-146.18;100.00;67994.34;10064162;28;20074;-74
2023/04/23 06:21:45;;;;;;;10.88;8.07;;;;;;;-146.18;100.00;67994.34;10062664;28;20082;-73
2023/04/23 06:26:41;;;;;;;10.55;8.70;;;;;;;-146.18;100.00;67994.34;10064358;28;20058;-74
2023/04/23 06:31:38;;;;;;;10.73;9.00;;;;;;;-146.18;100.00;67994.34;10045793;28;20579;-75
2023/04/23 06:36:35;;;;;;;10.00;7.75;;;;;;;-146.18;100.00;67994.34;10042904;28;20425;-74
2023/04/23 06:41:31;;;;;;;10.07;8.02;;;;;;;-146.18;100.00;67994.34;10066790;28;20047;-74
2023/04/23 06:46:28;;;;;;;8.30;7.50;;;;;;;-146.18;100.00;67994.34;10052773;28;20114;-74
2023/04/23 06:51:26;;;;;;;11.00;7.47;;;;;;;-146.18;100.00;67994.34;10059100;28;20188;-74
2023/04/23 06:56:23;;;;;;;7.72;6.93;;;;;;;-146.18;100.00;67994.34;10054079;28;20062;-73
2023/04/23 07:01:20;;;;;;;8.23;7.03;;;;;;;-146.18;100.00;67994.34;10064791;28;20051;-74
2023/04/23 07:06:16;;;;;;;9.85;8.32;;;;;;;-146.18;100.00;67994.34;10057988;28;20058;-73
2023/04/23 07:11:13;;;;;;;8.60;7.65;;;;;;;-146.18;100.00;67994.34;10064551;28;20081;-75
2023/04/23 07:16:10;;;;;;;8.82;7.82;;;;;;;-146.18;100.00;67994.34;10073813;28;20501;-73
2023/04/23 07:21:06;;;;;;;8.98;8.05;;;;;;;-146.18;100.00;67994.34;10060618;28;20043;-74
2023/04/23 07:26:03;;;;;;;11.23;8.57;;;;;;;-146.18;100.00;67994.34;10059835;28;20407;-74
2023/04/23 07:31:01;;;;;;;10.98;8.90;;;;;;;-146.18;100.00;67994.34;10053448;28;20466;-74
2023/04/23 07:35:57;;;;;;;9.30;7.82;;;;;;;-146.18;100.00;67994.34;10064042;28;20067;-74
2023/04/23 07:40:53;;;;;;;10.80;8.18;;;;;;;-146.18;100.00;67994.34;10064662;28;20544;-74
2023/04/23 07:45:50;;;;;;;9.88;8.10;;;;;;;-146.18;100.00;67994.34;10052287;28;20066;-74
2023/04/23 07:50:47;;;;;;;11.15;8.35;;;;;;;-146.18;100.00;67994.34;10058524;28;20113;-74
2023/04/23 07:55:44;;;;;;;8.80;7.80;;;;;;;-146.18;100.00;67994.34;10059960;28;20047;-74
2023/04/23 08:00:40;;;;;;;9.25;7.93;;;;;;;-146.18;100.00;67994.34;10027592;28;20127;-74
2023/04/23 08:05:37;;;;;;;16.25;7.95;;;;;;;-146.18;100.00;67994.34;10021997;28;20055;-74
2023/04/23 08:10:34;;;;;;;11.20;8.90;;;;;;;-146.18;100.00;67994.34;10036869;28;20054;-74
2023/04/23 08:15:31;;;;;;;12.50;8.15;;;;;;;-146.18;100.00;67994.34;10075089;28;20051;-74
2023/04/23 08:20:27;;;;;;;13.50;9.18;;;;;;;-146.18;100.00;67994.34;10063822;28;20485;-74
2023/04/23 08:25:24;;;;;;;15.68;10.25;;;;;;;-146.18;100.00;67994.34;10063761;28;20560;-73
2023/04/23 08:30:20;;;;;;;10.27;9.27;;;;;;;-146.18;100.00;67994.34;10055352;28;20051;-73
2023/04/23 08:35:17;;;;;;;13.25;10.48;;;;;;;-146.18;100.00;67994.34;10062534;28;20070;-73
2023/04/23 08:40:14;;;;;;;11.70;9.45;;;;;;;-146.18;100.00;67994.34;10059851;28;20094;-73
2023/04/23 08:45:12;;;;;;;14.10;10.68;;;;;;;-146.18;100.00;67994.34;10064047;28;20079;-73
2023/04/23 08:50:18;;;;;;;12.25;10.98;;;;;;;-146.18;100.00;67994.34;10060694;28;20495;-73
2023/04/23 08:55:15;;;;;;;12.77;10.25;;;;;;;-146.18;100.00;67994.34;10061280;28;20090;-73
2023/04/23 09:00:14;;;;;;;10.85;9.85;;;;;;;-146.18;100.00;67994.34;10056764;28;20583;-74
2023/04/23 09:05:11;;;;;;;11.35;9.85;;;;;;;-146.18;100.00;67994.34;10047543;28;20047;-73
2023/04/23 09:10:13;;;;;;;11.75;8.93;;;;;;;-146.18;100.00;67994.34;10054585;28;20057;-73
2023/04/23 09:15:13;;;;;;;12.05;8.45;;;;;;;-146.18;100.00;67994.34;10054164;28;20051;-74
2023/04/23 09:20:11;;;;;;;9.43;8.27;;;;;;;-146.18;100.00;67994.34;10059709;28;20110;-74
2023/04/23 09:25:09;;;;;;;9.85;8.85;;;;;;;-146.18;100.00;67994.34;10058230;28;20047;-73
2023/04/23 09:30:09;;;;;;;10.57;9.23;;;;;;;-146.18;100.00;67994.34;10070637;28;20090;-73
2023/04/23 09:35:07;;;;;;;11.82;10.10;;;;;;;-146.18;100.00;67994.34;10061527;28;20075;-74
2023/04/23 09:40:08;;;;;;;9.63;8.63;;;;;;;-146.18;100.00;67994.34;10057253;28;20059;-73
2023/04/23 09:45:06;;;;;;;9.88;8.98;;;;;;;-146.18;100.00;67994.34;10067146;28;20047;-74
2023/04/23 09:50:04;;;;;;;9.85;8.63;;;;;;;-146.18;100.00;67994.34;10055436;28;20434;-73
2023/04/23 09:55:01;;;;;;;9.82;8.73;;;;;;;-146.18;100.00;67994.34;10064006;29;20407;-74
2023/04/23 09:59:58;;;;;;;10.02;8.48;;;;;;;-146.18;100.00;67994.34;10070774;28;20126;-75
2023/04/23 10:05:16;;;;;;;12.32;8.77;;;;;;;-146.18;100.00;67994.34;10025550;28;20046;-74
2023/04/23 10:10:24;;;;;;;9.57;7.50;;;;;;;-146.18;100.00;67994.34;10060111;28;20130;-75
2023/04/23 10:15:22;;;;;;;8.95;8.05;;;;;;;-146.18;100.00;67994.34;10059426;28;20506;-75
2023/04/23 10:20:21;;;;;;;9.45;8.38;;;;;;;-146.18;100.00;67994.34;10017045;28;20051;-74
2023/04/23 10:25:18;;;;;;;10.05;8.40;;;;;;;-146.18;100.00;67994.34;10022592;28;20102;-75
2023/04/23 10:30:16;;;;;;;8.88;7.97;;;;;;;-146.18;100.00;67994.34;10065780;28;20094;-74
2023/04/23 10:35:12;;;;;;;9.82;8.20;;;;;;;-146.18;100.00;67994.34;10054476;28;20045;-74
2023/04/23 10:40:12;;;;;;;11.15;9.95;;;;;;;-146.18;100.00;67994.34;10062865;28;20067;-73
2023/04/23 10:45:15;;;;;;;11.57;10.45;;;;;;;-146.18;100.00;67994.34;10058475;28;20075;-74
2023/04/23 10:50:28;;;;;;;11.38;10.20;;;;;;;-146.18;100.00;67994.34;10053408;28;20062;-74
2023/04/23 10:55:27;;;;;;;12.20;11.00;;;;;;;-146.18;100.00;67994.34;10055968;28;20453;-74
2023/04/23 11:00:25;;;;;;;12.15;10.40;;;;;;;-146.18;100.00;67994.34;10058175;28;20059;-74
2023/04/23 11:05:24;;;;;;;10.73;9.63;;;;;;;-146.18;100.00;67994.34;10054709;28;20070;-74
2023/04/23 11:10:24;;;;;;;14.05;10.88;;;;;;;-146.18;100.00;67994.34;10060648;28;20047;-74
2023/04/23 11:15:20;;;;;;;11.90;10.68;;;;;;;-146.18;100.00;67994.34;10055938;28;20051;-73
2023/04/23 11:20:21;;;;;;;11.65;10.52;;;;;;;-146.18;100.00;67994.34;10048162;28;20047;-73
2023/04/23 11:25:23;;;;;;;11.95;10.27;;;;;;;-146.18;100.00;67994.34;10053947;28;20047;-74
2023/04/23 11:30:22;;;;;;;11.70;10.48;;;;;;;-146.18;100.00;67994.34;10067393;28;20142;-73
2023/04/23 11:35:20;;;;;;;10.93;9.68;;;;;;;-146.18;100.00;67994.34;10063690;28;20043;-70
2023/04/23 11:40:18;;;;;;;11.15;10.05;;;;;;;-146.18;100.00;67994.34;10062477;28;20063;-73
2023/04/23 11:45:23;;;;;;;15.63;11.43;;;;;;;-146.18;100.00;67994.34;10061913;28;20490;-71
2023/04/23 11:50:31;;;;;;;11.18;9.57;;;;;;;-146.18;100.00;67994.34;10046534;28;20182;-72
2023/04/23 11:55:29;;;;;;;10.90;9.80;;;;;;;-146.18;100.00;67994.34;10065730;28;20061;-72
2023/04/23 12:00:26;;;;;;;12.30;10.38;;;;;;;-146.18;100.00;67994.34;10075229;28;20043;-72
2023/04/23 12:05:38;;;;;;;10.27;9.15;;;;;;;-146.18;100.00;67994.34;10068496;28;20051;-71
2023/04/23 12:10:51;;;;;;;11.60;10.40;;;;;;;-146.18;100.00;67994.34;10084210;28;20051;-73
2023/04/23 12:15:58;;;;;;;10.68;9.68;;;;;;;-146.18;100.00;67994.34;10063329;28;20048;-72
2023/04/23 12:20:56;;;;;;;10.40;9.30;;;;;;;-146.18;100.00;67994.34;10062777;28;20055;-71
2023/04/23 12:25:53;;;;;;;8.80;7.82;;;;;;;-146.18;100.00;67994.34;10079573;28;20521;-69
2023/04/23 12:30:51;;;;;;;9.10;8.20;;;;;;;-146.18;100.00;67994.34;10072727;28;20130;-69
2023/04/23 12:35:50;;;;;;;9.57;8.68;;;;;;;-146.18;100.00;67994.34;10074355;28;20074;-70
2023/04/23 12:40:47;;;;;;;7.47;6.78;;;;;;;-146.18;100.00;67994.34;10073878;28;20685;-70
2023/04/23 12:45:44;;;;;;;8.07;7.38;;;;;;;-146.18;100.00;67994.34;10076220;28;20043;-71
2023/04/23 12:50:41;;;;;;;8.15;7.40;;;;;;;-146.18;100.00;67994.34;10073769;28;20541;-69
2023/04/23 12:55:38;;;;;;;8.00;7.13;;;;;;;-146.18;100.00;67994.34;10068818;28;20133;-72
2023/04/23 13:00:34;;;;;;;7.22;6.53;;;;;;;-146.18;100.00;67994.34;10073322;28;20139;-71
2023/04/23 13:05:31;;;;;;;7.47;6.72;;;;;;;-146.18;100.00;67994.34;10066296;28;20054;-71
2023/04/23 13:10:29;;;;;;;7.95;7.25;;;;;;;-146.18;100.00;67994.34;10069697;28;20043;-71
2023/04/23 13:15:26;;;;;;;7.90;7.00;;;;;;;-146.18;100.00;67994.34;10067715;28;20051;-73
2023/04/23 13:20:24;;;;;;;6.30;5.70;;;;;;;-146.18;100.00;67994.34;10073423;28;20043;-74
2023/04/23 13:25:21;;;;;;;7.15;6.10;;;;;;;-146.18;100.00;67994.34;10071907;28;20482;-74
2023/04/23 13:30:18;;;;;;;6.80;6.15;;;;;;;-146.18;100.00;67994.34;10070097;28;20582;-73
2023/04/23 13:35:15;;;;;;;7.47;6.72;;;;;;;-146.18;100.00;67994.34;10071230;28;20115;-73
2023/04/23 13:40:12;;;;;;;7.57;6.70;;;;;;;-146.18;100.00;67994.34;10071785;28;20536;-73
2023/04/23 13:45:09;;;;;;;8.93;6.18;;;;;;;-146.18;100.00;67994.34;10067938;28;20457;-72
2023/04/23 13:50:09;;;;;;;6.07;5.47;;;;;;;-146.18;100.00;67994.34;10068988;28;20047;-73
2023/04/23 13:55:06;;;;;;;6.00;5.50;;;;;;;-146.18;100.00;67994.34;10070487;28;20051;-73
2023/04/23 14:00:03;;;;;;;7.10;5.13;;;;;;;-146.18;100.00;67994.34;10063627;28;20280;-73
2023/04/23 14:05:02;;;;;;;6.40;5.80;;;;;;;-146.18;100.00;67994.34;10062632;28;21252;-73
2023/04/23 14:09:59;;;;;;;6.22;5.63;;;;;;;-146.18;100.00;67994.34;10056907;28;20061;-73
2023/04/23 14:14:56;;;;;;;8.15;5.50;;;;;;;-146.18;100.00;67994.34;10055910;28;21865;-74
2023/04/23 14:19:52;;;;;;;5.88;5.13;;;;;;;-146.18;100.00;67994.34;10057629;28;20137;-73
2023/04/23 14:24:50;;;;;;;5.80;5.20;;;;;;;-146.18;100.00;67994.34;10021821;28;20543;-73
2023/04/23 14:29:53;;;;;;;6.07;5.53;;;;;;;-146.18;100.00;67994.34;10063206;28;20054;-73
2023/04/23 14:34:50;;;;;;;5.13;4.63;;;;;;;-146.18;100.00;67994.34;10057489;28;20457;-73
2023/04/23 14:39:46;;;;;;;13.73;6.95;;;;;;;-146.18;100.00;67994.34;10064264;28;20539;-72
2023/04/23 14:44:43;;;;;;;8.07;7.28;;;;;;;-146.18;100.00;67994.34;10065232;28;20066;-72
2023/04/23 14:49:40;;;;;;;6.90;6.20;;;;;;;-146.18;100.00;67994.34;10065779;28;20492;-70
2023/04/23 14:54:37;;;;;;;6.07;5.43;;;;;;;-146.18;100.00;67994.34;10063246;28;20069;-69
2023/04/23 14:59:34;;;;;;;5.45;4.95;;;;;;;-146.18;100.00;67994.34;10045653;28;20043;-70
2023/04/23 15:04:30;;;;;;;7.22;5.40;;;;;;;-146.18;100.00;67994.34;10062994;28;20043;-70
2023/04/23 15:09:27;;;;;;;9.13;6.07;;;;;;;-146.18;100.00;67994.34;10054936;28;20055;-71
2023/04/23 15:14:31;;;;;;;6.93;6.07;;;;;;;-146.18;100.00;67994.34;10062324;28;20035;-72
2023/04/23 15:19:30;;;;;;;6.93;5.72;;;;;;;-146.18;100.00;67994.34;10053905;28;20051;-71
2023/04/23 15:24:26;;;;;;;5.95;5.18;;;;;;;-146.18;100.00;67994.34;10060911;28;20051;-71
2023/04/23 15:29:23;;;;;;;7.43;6.03;;;;;;;-146.18;100.00;67994.34;10057475;28;20043;-72
2023/04/23 15:34:20;;;;;;;8.75;6.95;;;;;;;-146.18;100.00;67994.34;10069442;28;20131;-72
2023/04/23 15:39:16;;;;;;;7.00;5.10;;;;;;;-146.18;100.00;67994.34;10061074;28;20039;-72
2023/04/23 15:44:13;;;;;;;6.40;5.10;;;;;;;-146.18;100.00;67994.34;10065488;28;20068;-71
2023/04/23 15:49:09;;;;;;;5.72;4.88;;;;;;;-146.18;100.00;67994.34;10061125;28;20459;-71
2023/04/23 15:54:07;;;;;;;5.43;4.90;;;;;;;-146.18;100.00;67994.34;10061127;28;20040;-71
2023/04/23 15:59:04;;;;;;;5.80;5.30;;;;;;;-146.18;100.00;67994.34;10064549;28;20382;-72
2023/04/23 16:04:01;;;;;;;5.95;4.85;;;;;;;-146.18;100.00;67994.34;10058848;28;20051;-72
2023/04/23 16:09:02;;;;;;;5.97;5.40;;;;;;;-146.18;100.00;67994.34;10063819;28;20047;-71
2023/04/23 16:13:58;;;;;;;6.45;5.78;;;;;;;-146.18;100.00;67994.34;10062442;28;20044;-72
2023/04/23 16:18:55;;;;;;;6.22;5.60;;;;;;;-146.18;100.00;67994.34;10056884;28;20405;-72
2023/04/23 16:23:53;;;;;;;7.10;5.47;;;;;;;-146.18;100.00;67994.34;10061303;28;20453;-71
2023/04/23 16:28:51;;;;;;;5.05;4.65;;;;;;;-146.18;100.00;67994.34;10056285;28;20079;-71
2023/04/23 16:34:07;;;;;;;6.15;5.55;;;;;;;-146.18;100.00;67994.34;10066211;28;20055;-72
2023/04/23 16:39:04;;;;;;;7.05;5.90;;;;;;;-146.18;100.00;67994.34;10059478;28;20051;-72
2023/04/23 16:44:00;;;;;;;6.80;6.07;;;;;;;-146.18;100.00;67994.34;10057684;28;20055;-72
2023/04/23 16:48:57;;;;;;;6.30;5.68;;;;;;;-146.18;100.00;67994.34;10058478;28;20054;-71
2023/04/23 16:53:55;;;;;;;8.63;5.97;;;;;;;-146.18;100.00;67994.34;10061374;28;20166;-71
2023/04/23 16:58:51;;;;;;;8.48;6.38;;;;;;;-146.18;100.00;67994.34;10055130;28;20043;-71
2023/04/23 17:03:48;;;;;;;7.30;6.60;;;;;;;-146.18;100.00;67994.34;10065629;28;20461;-71
2023/04/23 17:08:45;;;;;;;8.32;7.43;;;;;;;-146.18;100.00;67994.34;10059249;28;20046;-71
2023/04/23 17:13:44;;;;;;;6.90;6.20;;;;;;;-146.18;100.00;67994.34;10060430;28;20150;-71
2023/04/23 17:18:41;;;;;;;8.30;7.47;;;;;;;-146.18;100.00;67994.34;10052068;28;20043;-72
2023/04/23 17:23:38;;;;;;;11.75;8.00;;;;;;;-146.18;100.00;67994.34;10062262;28;20067;-72
2023/04/23 17:28:34;;;;;;;9.48;8.48;;;;;;;-146.18;100.00;67994.34;10059860;28;20057;-73
2023/04/23 17:33:31;;;;;;;9.60;8.52;;;;;;;-146.18;100.00;67994.34;10069815;28;20069;-72
2023/04/23 17:38:28;;;;;;;10.20;8.52;;;;;;;-146.18;100.00;67994.34;10064137;28;20465;-73
2023/04/23 17:43:24;;;;;;;11.02;8.98;;;;;;;-146.18;100.00;67994.34;10060193;28;20074;-73
2023/04/23 17:48:22;;;;;;;9.30;8.40;;;;;;;-146.18;100.00;67994.34;10058049;28;20075;-73
2023/04/23 17:53:19;;;;;;;10.02;9.02;;;;;;;-146.18;100.00;67994.34;10065655;28;20044;-72
2023/04/23 17:58:18;;;;;;;10.80;8.93;;;;;;;-146.18;100.00;67994.34;10060741;28;20181;-72
2023/04/23 18:03:17;;;;;;;10.00;9.00;;;;;;;-146.18;100.00;67994.34;10064983;28;20047;-72
2023/04/23 18:08:16;;;;;;;10.70;8.48;;;;;;;-146.18;100.00;67994.34;10061011;28;20557;-72
2023/04/23 18:13:12;;;;;;;9.55;8.35;;;;;;;-146.18;100.00;67994.34;10064549;28;20047;-72
2023/04/23 18:18:09;;;;;;;12.07;9.55;;;;;;;-146.18;100.00;67994.34;10052768;28;20451;-73
2023/04/23 18:23:06;;;;;;;9.27;8.32;;;;;;;-146.18;100.00;67994.34;10062656;28;20082;-74
2023/04/23 18:28:03;;;;;;;10.25;9.25;;;;;;;-146.18;100.00;67994.34;10052588;28;20106;-72
2023/04/23 18:33:20;;;;;;;11.75;9.68;;;;;;;-146.18;100.00;67994.34;10058574;28;20043;-73
2023/04/23 18:38:28;;;;;;;11.05;9.32;;;;;;;-146.18;100.00;67994.34;10063871;28;20071;-73
2023/04/23 18:43:27;;;;;;;9.85;8.80;;;;;;;-146.18;100.00;67994.34;10058878;28;20142;-72
2023/04/23 18:48:32;;;;;;;9.88;8.73;;;;;;;-146.18;100.00;67994.34;10061171;28;20531;-72
2023/04/23 18:53:29;;;;;;;10.35;8.63;;;;;;;-146.18;100.00;67994.34;10067043;28;20051;-72
2023/04/23 18:58:26;;;;;;;9.70;8.70;;;;;;;-146.18;100.00;67994.34;10059052;28;20097;-72
2023/04/23 19:03:27;;;;;;;9.95;9.05;;;;;;;-146.18;100.00;67994.34;10060309;28;20098;-72
2023/04/23 19:08:27;;;;;;;9.43;8.52;;;;;;;-146.18;100.00;67994.34;10075090;28;20090;-72
2023/04/23 19:13:24;;;;;;;10.25;8.85;;;;;;;-146.18;100.00;67994.34;10063420;28;20051;-72
2023/04/23 19:18:21;;;;;;;9.95;8.75;;;;;;;-146.18;100.00;67994.34;10072172;28;20062;-72
2023/04/23 19:23:18;;;;;;;10.48;9.40;;;;;;;-146.18;100.00;67994.34;10069644;28;20043;-71
2023/04/23 19:28:18;;;;;;;10.15;9.15;;;;;;;-146.18;100.00;67994.34;10070450;28;20093;-71
2023/04/23 19:33:15;;;;;;;11.10;9.70;;;;;;;-146.18;100.00;67994.34;10070894;28;20067;-71
2023/04/23 19:38:11;;;;;;;11.23;10.13;;;;;;;-146.18;100.00;67994.34;10068505;28;20067;-71
2023/04/23 19:43:08;;;;;;;15.68;10.10;;;;;;;-146.18;100.00;67994.34;10075910;28;20565;-72
2023/04/23 19:48:08;;;;;;;10.98;9.65;;;;;;;-146.18;100.00;67994.34;10054334;28;20048;-73
2023/04/23 19:53:05;;;;;;;9.98;8.98;;;;;;;-146.18;100.00;67994.34;10062582;28;20098;-73
2023/04/23 19:58:05;;;;;;;10.85;9.85;;;;;;;-146.18;100.00;67994.34;10061534;28;20047;-72
2023/04/23 20:03:02;;;;;;;12.40;11.20;;;;;;;-146.18;100.00;67994.34;10069837;28;20051;-72
2023/04/23 20:08:00;;;;;;;12.10;9.80;;;;;;;-146.18;100.00;67994.34;10060888;28;20055;-70
2023/04/23 20:12:58;;;;;;;10.60;9.65;;;;;;;-146.18;100.00;67994.34;10059937;28;20075;-70
2023/04/23 20:17:54;;;;;;;11.20;10.10;;;;;;;-146.18;100.00;67994.34;10064003;28;20134;-70
2023/04/23 20:22:51;;;;;;;10.80;9.80;;;;;;;-146.18;100.00;67994.34;10060770;28;20043;-70
2023/04/23 20:27:49;;;;;;;10.32;9.43;;;;;;;-146.18;100.00;67994.34;10060879;28;20053;-70
2023/04/23 20:32:46;;;;;;;10.38;9.27;;;;;;;-146.18;100.00;67994.34;10068115;28;20039;-70
2023/04/23 20:37:42;;;;;;;10.52;9.45;;;;;;;-146.18;100.00;67994.34;10072491;28;20509;-70
2023/04/23 20:42:39;;;;;;;11.15;10.13;;;;;;;-146.18;100.00;67994.34;10068592;28;20146;-71
2023/04/23 20:47:35;;;;;;;10.50;9.50;;;;;;;-146.18;100.00;67994.34;10072385;28;20409;-71
2023/04/23 20:52:32;;;;;;;9.25;8.35;;;;;;;-146.18;100.00;67994.34;10069607;28;20043;-74
2023/04/23 20:57:28;;;;;;;9.15;8.35;;;;;;;-146.18;100.00;67994.34;10065866;28;20047;-68
2023/04/23 21:02:25;;;;;;;10.00;9.10;;;;;;;-146.18;100.00;67994.34;10063659;28;20130;-69
2023/04/23 21:07:21;;;;;;;9.90;9.00;;;;;;;-146.18;100.00;67994.34;10058472;28;20053;-71
2023/04/23 21:12:18;;;;;;;11.10;8.45;;;;;;;-146.18;100.00;67994.34;10071818;28;20523;-71
2023/04/23 21:17:14;;;;;;;8.82;8.02;;;;;;;-146.18;100.00;67994.34;10069200;28;20215;-68
2023/04/23 21:22:11;;;;;;;8.95;8.10;;;;;;;-146.18;100.00;67994.34;10079489;28;20412;-68
2023/04/23 21:27:10;;;;;;;9.20;7.95;;;;;;;-146.18;100.00;67994.34;10069188;28;20445;-68
2023/04/23 21:32:08;;;;;;;8.07;7.38;;;;;;;-146.18;100.00;67994.34;10064953;28;20050;-69
2023/04/23 21:37:04;;;;;;;8.68;7.65;;;;;;;-146.18;100.00;67994.34;10064712;28;20043;-69
2023/04/23 21:42:01;;;;;;;8.63;7.82;;;;;;;-146.18;100.00;67994.34;10074166;28;20714;-71
2023/04/23 21:46:57;;;;;;;9.35;8.50;;;;;;;-146.18;100.00;67994.34;10072934;28;20078;-71
2023/04/23 21:51:54;;;;;;;8.93;7.82;;;;;;;-146.18;100.00;67994.34;10063074;28;20547;-72
2023/04/23 21:56:51;;;;;;;10.15;9.20;;;;;;;-146.18;100.00;67994.34;10070598;28;20473;-72
2023/04/23 22:01:48;;;;;;;9.95;8.48;;;;;;;-146.18;100.00;67994.34;10062294;28;20135;-70